sensor_id;sensor_type;location;lat;lon;timestamp;P1;durP1;ratioP1;P2;durP2;ratioP2
76194;SDS011;64964;48.694;21.206;2023-08-21T00:01:55;11.40;;;9.70;;
76194;SDS011;64964;48.694;21.206;2023-08-21T00:04:21;11.45;;;10.15;;
76194;SDS011;64964;48.694;21.206;2023-08-21T00:06:46;11.43;;;9.97;;
76194;SDS011;64964;48.694;21.206;2023-08-21T00:09:12;11.30;;;9.70;;
76194;SDS011;64964;48.694;21.206;2023-08-21T00:11:37;10.20;;;9.10;;
76194;SDS011;64964;48.694;21.206;2023-08-21T00:14:02;11.17;;;9.70;;
76194;SDS011;64964;48.694;21.206;2023-08-21T00:16:28;10.35;;;9.23;;
76194;SDS011;64964;48.694;21.206;2023-08-21T00:18:54;10.47;;;9.27;;
76194;SDS011;64964;48.694;21.206;2023-08-21T00:21:19;12.23;;;10.15;;
76194;SDS011;64964;48.694;21.206;2023-08-21T00:23:45;10.77;;;9.67;;
76194;SDS011;64964;48.694;21.206;2023-08-21T00:26:11;11.20;;;9.68;;
76194;SDS011;64964;48.694;21.206;2023-08-21T00:28:37;11.13;;;9.57;;
76194;SDS011;64964;48.694;21.206;2023-08-21T00:31:03;11.03;;;9.93;;
76194;SDS011;64964;48.694;21.206;2023-08-21T00:33:30;10.35;;;9.35;;
76194;SDS011;64964;48.694;21.206;2023-08-21T00:35:56;10.32;;;9.32;;
76194;SDS011;64964;48.694;21.206;2023-08-21T00:38:22;11.30;;;9.20;;
76194;SDS011;64964;48.694;21.206;2023-08-21T00:40:48;10.95;;;9.85;;
76194;SDS011;64964;48.694;21.206;2023-08-21T00:43:13;12.40;;;10.43;;
76194;SDS011;64964;48.694;21.206;2023-08-21T00:45:39;12.10;;;9.70;;
76194;SDS011;64964;48.694;21.206;2023-08-21T00:48:07;12.75;;;9.55;;
76194;SDS011;64964;48.694;21.206;2023-08-21T00:50:34;11.97;;;9.47;;
76194;SDS011;64964;48.694;21.206;2023-08-21T00:53:00;11.10;;;9.60;;
76194;SDS011;64964;48.694;21.206;2023-08-21T00:55:26;13.50;;;9.77;;
76194;SDS011;64964;48.694;21.206;2023-08-21T00:57:52;11.13;;;9.90;;
76194;SDS011;64964;48.694;21.206;2023-08-21T01:00:18;11.23;;;9.18;;
76194;SDS011;64964;48.694;21.206;2023-08-21T01:02:44;11.32;;;9.63;;
76194;SDS011;64964;48.694;21.206;2023-08-21T01:05:09;12.40;;;9.97;;
76194;SDS011;64964;48.694;21.206;2023-08-21T01:07:36;11.60;;;9.17;;
76194;SDS011;64964;48.694;21.206;2023-08-21T01:10:23;11.27;;;9.65;;
76194;SDS011;64964;48.694;21.206;2023-08-21T01:13:09;13.10;;;9.65;;
76194;SDS011;64964;48.694;21.206;2023-08-21T01:15:44;10.50;;;9.48;;
76194;SDS011;64964;48.694;21.206;2023-08-21T01:18:11;12.82;;;9.63;;
76194;SDS011;64964;48.694;21.206;2023-08-21T01:20:36;11.33;;;10.07;;
76194;SDS011;64964;48.694;21.206;2023-08-21T01:23:03;11.05;;;9.55;;
76194;SDS011;64964;48.694;21.206;2023-08-21T01:25:30;13.02;;;9.90;;
76194;SDS011;64964;48.694;21.206;2023-08-21T01:27:56;11.43;;;9.37;;
76194;SDS011;64964;48.694;21.206;2023-08-21T01:30:21;12.57;;;9.65;;
76194;SDS011;64964;48.694;21.206;2023-08-21T01:32:48;11.43;;;9.43;;
76194;SDS011;64964;48.694;21.206;2023-08-21T01:35:23;12.68;;;9.77;;
76194;SDS011;64964;48.694;21.206;2023-08-21T01:37:50;10.60;;;9.43;;
76194;SDS011;64964;48.694;21.206;2023-08-21T01:40:23;12.18;;;9.65;;
76194;SDS011;64964;48.694;21.206;2023-08-21T01:42:49;10.93;;;9.63;;
76194;SDS011;64964;48.694;21.206;2023-08-21T01:45:14;11.17;;;9.13;;
76194;SDS011;64964;48.694;21.206;2023-08-21T01:47:40;11.23;;;9.85;;
76194;SDS011;64964;48.694;21.206;2023-08-21T01:50:05;10.87;;;9.77;;
76194;SDS011;64964;48.694;21.206;2023-08-21T01:52:31;11.13;;;9.93;;
76194;SDS011;64964;48.694;21.206;2023-08-21T01:54:57;11.13;;;10.00;;
76194;SDS011;64964;48.694;21.206;2023-08-21T01:57:22;12.57;;;10.00;;
76194;SDS011;64964;48.694;21.206;2023-08-21T01:59:48;12.40;;;9.85;;
76194;SDS011;64964;48.694;21.206;2023-08-21T02:02:13;10.80;;;9.70;;
76194;SDS011;64964;48.694;21.206;2023-08-21T02:04:39;10.70;;;9.57;;
76194;SDS011;64964;48.694;21.206;2023-08-21T02:07:04;11.90;;;9.75;;
76194;SDS011;64964;48.694;21.206;2023-08-21T02:09:30;11.13;;;9.33;;
76194;SDS011;64964;48.694;21.206;2023-08-21T02:11:55;10.23;;;9.10;;
76194;SDS011;64964;48.694;21.206;2023-08-21T02:14:20;11.83;;;9.97;;
76194;SDS011;64964;48.694;21.206;2023-08-21T02:16:46;13.55;;;9.80;;
76194;SDS011;64964;48.694;21.206;2023-08-21T02:19:11;11.37;;;9.47;;
76194;SDS011;64964;48.694;21.206;2023-08-21T02:21:36;12.10;;;9.60;;
76194;SDS011;64964;48.694;21.206;2023-08-21T02:24:02;10.80;;;9.53;;
76194;SDS011;64964;48.694;21.206;2023-08-21T02:26:27;12.85;;;9.80;;
76194;SDS011;64964;48.694;21.206;2023-08-21T02:28:53;11.57;;;9.93;;
76194;SDS011;64964;48.694;21.206;2023-08-21T02:31:18;11.23;;;8.83;;
76194;SDS011;64964;48.694;21.206;2023-08-21T02:33:44;14.77;;;8.73;;
76194;SDS011;64964;48.694;21.206;2023-08-21T02:36:09;13.40;;;10.27;;
76194;SDS011;64964;48.694;21.206;2023-08-21T02:38:35;11.37;;;9.70;;
76194;SDS011;64964;48.694;21.206;2023-08-21T02:41:00;10.90;;;9.63;;
76194;SDS011;64964;48.694;21.206;2023-08-21T02:43:26;11.03;;;9.87;;
76194;SDS011;64964;48.694;21.206;2023-08-21T02:45:51;11.63;;;9.27;;
76194;SDS011;64964;48.694;21.206;2023-08-21T02:48:16;11.83;;;9.40;;
76194;SDS011;64964;48.694;21.206;2023-08-21T02:50:42;11.15;;;9.18;;
76194;SDS011;64964;48.694;21.206;2023-08-21T02:53:08;11.77;;;9.20;;
76194;SDS011;64964;48.694;21.206;2023-08-21T02:55:33;10.80;;;9.70;;
76194;SDS011;64964;48.694;21.206;2023-08-21T02:57:59;11.30;;;9.80;;
76194;SDS011;64964;48.694;21.206;2023-08-21T03:00:24;10.77;;;9.07;;
76194;SDS011;64964;48.694;21.206;2023-08-21T03:02:49;11.70;;;9.37;;
76194;SDS011;64964;48.694;21.206;2023-08-21T03:05:15;13.13;;;9.83;;
76194;SDS011;64964;48.694;21.206;2023-08-21T03:07:40;10.23;;;9.20;;
76194;SDS011;64964;48.694;21.206;2023-08-21T03:10:06;11.57;;;9.57;;
76194;SDS011;64964;48.694;21.206;2023-08-21T03:12:32;11.43;;;9.73;;
76194;SDS011;64964;48.694;21.206;2023-08-21T03:14:58;12.25;;;10.10;;
76194;SDS011;64964;48.694;21.206;2023-08-21T03:17:23;10.57;;;9.50;;
76194;SDS011;64964;48.694;21.206;2023-08-21T03:19:49;11.80;;;10.10;;
76194;SDS011;64964;48.694;21.206;2023-08-21T03:22:14;12.60;;;10.13;;
76194;SDS011;64964;48.694;21.206;2023-08-21T03:24:40;11.37;;;10.10;;
76194;SDS011;64964;48.694;21.206;2023-08-21T03:27:05;11.30;;;10.10;;
76194;SDS011;64964;48.694;21.206;2023-08-21T03:29:30;12.30;;;10.55;;
76194;SDS011;64964;48.694;21.206;2023-08-21T03:31:56;10.93;;;9.53;;
76194;SDS011;64964;48.694;21.206;2023-08-21T03:34:22;13.73;;;9.98;;
76194;SDS011;64964;48.694;21.206;2023-08-21T03:36:48;11.30;;;10.00;;
76194;SDS011;64964;48.694;21.206;2023-08-21T03:39:13;12.60;;;10.57;;
76194;SDS011;64964;48.694;21.206;2023-08-21T03:41:39;10.07;;;9.07;;
76194;SDS011;64964;48.694;21.206;2023-08-21T03:44:04;11.63;;;9.88;;
76194;SDS011;64964;48.694;21.206;2023-08-21T03:46:29;11.17;;;9.53;;
76194;SDS011;64964;48.694;21.206;2023-08-21T03:48:55;13.00;;;9.40;;
76194;SDS011;64964;48.694;21.206;2023-08-21T03:51:20;10.80;;;9.70;;
76194;SDS011;64964;48.694;21.206;2023-08-21T03:53:46;12.63;;;9.90;;
76194;SDS011;64964;48.694;21.206;2023-08-21T03:56:11;11.80;;;9.17;;
76194;SDS011;64964;48.694;21.206;2023-08-21T03:58:36;11.37;;;9.27;;
76194;SDS011;64964;48.694;21.206;2023-08-21T04:01:02;11.27;;;9.47;;
76194;SDS011;64964;48.694;21.206;2023-08-21T04:03:28;11.02;;;9.50;;
76194;SDS011;64964;48.694;21.206;2023-08-21T04:05:53;12.47;;;10.10;;
76194;SDS011;64964;48.694;21.206;2023-08-21T04:08:21;12.18;;;9.05;;
76194;SDS011;64964;48.694;21.206;2023-08-21T04:10:46;11.67;;;9.90;;
76194;SDS011;64964;48.694;21.206;2023-08-21T04:13:12;11.40;;;10.07;;
76194;SDS011;64964;48.694;21.206;2023-08-21T04:15:37;13.30;;;9.53;;
76194;SDS011;64964;48.694;21.206;2023-08-21T04:18:03;12.20;;;10.03;;
76194;SDS011;64964;48.694;21.206;2023-08-21T04:20:29;12.63;;;10.23;;
76194;SDS011;64964;48.694;21.206;2023-08-21T04:22:54;10.70;;;9.43;;
76194;SDS011;64964;48.694;21.206;2023-08-21T04:25:19;11.82;;;10.00;;
76194;SDS011;64964;48.694;21.206;2023-08-21T04:27:45;11.53;;;9.87;;
76194;SDS011;64964;48.694;21.206;2023-08-21T04:30:11;11.37;;;9.43;;
76194;SDS011;64964;48.694;21.206;2023-08-21T04:32:36;12.90;;;9.90;;
76194;SDS011;64964;48.694;21.206;2023-08-21T04:35:02;11.17;;;9.70;;
76194;SDS011;64964;48.694;21.206;2023-08-21T04:37:27;14.45;;;10.15;;
76194;SDS011;64964;48.694;21.206;2023-08-21T04:39:53;11.40;;;10.20;;
76194;SDS011;64964;48.694;21.206;2023-08-21T04:42:19;12.02;;;9.43;;
76194;SDS011;64964;48.694;21.206;2023-08-21T04:44:44;13.00;;;10.27;;
76194;SDS011;64964;48.694;21.206;2023-08-21T04:47:23;11.15;;;9.40;;
76194;SDS011;64964;48.694;21.206;2023-08-21T04:49:51;10.75;;;9.65;;
76194;SDS011;64964;48.694;21.206;2023-08-21T04:52:18;10.83;;;9.23;;
76194;SDS011;64964;48.694;21.206;2023-08-21T04:54:44;10.60;;;9.50;;
76194;SDS011;64964;48.694;21.206;2023-08-21T04:57:09;11.38;;;9.25;;
76194;SDS011;64964;48.694;21.206;2023-08-21T04:59:35;11.40;;;9.20;;
76194;SDS011;64964;48.694;21.206;2023-08-21T05:02:01;12.98;;;9.20;;
76194;SDS011;64964;48.694;21.206;2023-08-21T05:04:27;12.23;;;9.13;;
76194;SDS011;64964;48.694;21.206;2023-08-21T05:06:52;11.67;;;9.13;;
76194;SDS011;64964;48.694;21.206;2023-08-21T05:09:17;13.27;;;9.17;;
76194;SDS011;64964;48.694;21.206;2023-08-21T05:11:43;10.83;;;9.00;;
76194;SDS011;64964;48.694;21.206;2023-08-21T05:14:08;10.43;;;8.37;;
76194;SDS011;64964;48.694;21.206;2023-08-21T05:16:33;9.23;;;8.27;;
76194;SDS011;64964;48.694;21.206;2023-08-21T05:18:59;11.50;;;8.30;;
76194;SDS011;64964;48.694;21.206;2023-08-21T05:21:24;10.53;;;8.73;;
76194;SDS011;64964;48.694;21.206;2023-08-21T05:23:50;9.40;;;8.40;;
76194;SDS011;64964;48.694;21.206;2023-08-21T05:26:15;9.83;;;8.30;;
76194;SDS011;64964;48.694;21.206;2023-08-21T05:28:40;9.03;;;8.10;;
76194;SDS011;64964;48.694;21.206;2023-08-21T05:31:06;9.70;;;7.87;;
76194;SDS011;64964;48.694;21.206;2023-08-21T05:33:31;10.93;;;7.90;;
76194;SDS011;64964;48.694;21.206;2023-08-21T05:35:57;9.33;;;8.00;;
76194;SDS011;64964;48.694;21.206;2023-08-21T05:38:22;8.87;;;7.97;;
76194;SDS011;64964;48.694;21.206;2023-08-21T05:40:48;8.95;;;7.72;;
76194;SDS011;64964;48.694;21.206;2023-08-21T05:43:13;9.07;;;8.17;;
76194;SDS011;64964;48.694;21.206;2023-08-21T05:45:39;9.57;;;7.33;;
76194;SDS011;64964;48.694;21.206;2023-08-21T05:48:04;8.45;;;7.28;;
76194;SDS011;64964;48.694;21.206;2023-08-21T05:50:31;11.07;;;7.23;;
76194;SDS011;64964;48.694;21.206;2023-08-21T05:52:56;9.07;;;7.63;;
76194;SDS011;64964;48.694;21.206;2023-08-21T05:55:23;8.68;;;7.78;;
76194;SDS011;64964;48.694;21.206;2023-08-21T05:57:48;8.90;;;7.93;;
76194;SDS011;64964;48.694;21.206;2023-08-21T06:00:14;10.85;;;8.18;;
76194;SDS011;64964;48.694;21.206;2023-08-21T06:02:39;8.93;;;7.80;;
76194;SDS011;64964;48.694;21.206;2023-08-21T06:05:07;8.90;;;7.38;;
76194;SDS011;64964;48.694;21.206;2023-08-21T06:07:33;8.25;;;7.45;;
76194;SDS011;64964;48.694;21.206;2023-08-21T06:09:58;9.13;;;7.40;;
76194;SDS011;64964;48.694;21.206;2023-08-21T06:12:23;8.43;;;7.63;;
76194;SDS011;64964;48.694;21.206;2023-08-21T06:14:49;8.97;;;7.53;;
76194;SDS011;64964;48.694;21.206;2023-08-21T06:17:14;11.70;;;7.33;;
76194;SDS011;64964;48.694;21.206;2023-08-21T06:19:39;8.40;;;7.50;;
76194;SDS011;64964;48.694;21.206;2023-08-21T06:22:07;9.13;;;7.30;;
76194;SDS011;64964;48.694;21.206;2023-08-21T06:24:33;8.03;;;7.17;;
76194;SDS011;64964;48.694;21.206;2023-08-21T06:26:58;8.75;;;7.82;;
76194;SDS011;64964;48.694;21.206;2023-08-21T06:29:24;8.63;;;7.63;;
76194;SDS011;64964;48.694;21.206;2023-08-21T06:31:49;10.37;;;7.90;;
76194;SDS011;64964;48.694;21.206;2023-08-21T06:34:15;8.35;;;7.38;;
76194;SDS011;64964;48.694;21.206;2023-08-21T06:36:40;11.13;;;7.80;;
76194;SDS011;64964;48.694;21.206;2023-08-21T06:39:05;12.40;;;8.53;;
76194;SDS011;64964;48.694;21.206;2023-08-21T06:41:31;12.70;;;8.60;;
76194;SDS011;64964;48.694;21.206;2023-08-21T06:43:57;11.48;;;8.43;;
76194;SDS011;64964;48.694;21.206;2023-08-21T06:46:23;10.83;;;8.63;;
76194;SDS011;64964;48.694;21.206;2023-08-21T06:48:48;14.53;;;8.97;;
76194;SDS011;64964;48.694;21.206;2023-08-21T06:51:15;12.15;;;8.88;;
76194;SDS011;64964;48.694;21.206;2023-08-21T06:53:41;12.40;;;8.30;;
76194;SDS011;64964;48.694;21.206;2023-08-21T06:56:06;14.55;;;8.52;;
76194;SDS011;64964;48.694;21.206;2023-08-21T06:58:32;14.37;;;8.37;;
76194;SDS011;64964;48.694;21.206;2023-08-21T07:00:57;10.87;;;8.50;;
76194;SDS011;64964;48.694;21.206;2023-08-21T07:03:23;11.70;;;8.30;;
76194;SDS011;64964;48.694;21.206;2023-08-21T07:05:55;10.80;;;8.00;;
76194;SDS011;64964;48.694;21.206;2023-08-21T07:08:21;10.52;;;8.32;;
76194;SDS011;64964;48.694;21.206;2023-08-21T07:10:47;12.32;;;8.38;;
76194;SDS011;64964;48.694;21.206;2023-08-21T07:13:13;10.10;;;8.20;;
76194;SDS011;64964;48.694;21.206;2023-08-21T07:15:38;14.98;;;8.77;;
76194;SDS011;64964;48.694;21.206;2023-08-21T07:18:03;13.50;;;8.83;;
76194;SDS011;64964;48.694;21.206;2023-08-21T07:20:29;11.70;;;9.33;;
76194;SDS011;64964;48.694;21.206;2023-08-21T07:22:54;14.77;;;8.57;;
76194;SDS011;64964;48.694;21.206;2023-08-21T07:25:19;9.40;;;8.13;;
76194;SDS011;64964;48.694;21.206;2023-08-21T07:27:45;9.67;;;8.07;;
76194;SDS011;64964;48.694;21.206;2023-08-21T07:30:10;10.27;;;8.33;;
76194;SDS011;64964;48.694;21.206;2023-08-21T07:32:36;8.97;;;8.07;;
76194;SDS011;64964;48.694;21.206;2023-08-21T07:35:01;11.05;;;8.02;;
76194;SDS011;64964;48.694;21.206;2023-08-21T07:37:27;10.77;;;7.30;;
76194;SDS011;64964;48.694;21.206;2023-08-21T07:39:52;8.75;;;7.85;;
76194;SDS011;64964;48.694;21.206;2023-08-21T07:42:18;8.40;;;7.53;;
76194;SDS011;64964;48.694;21.206;2023-08-21T07:44:44;10.07;;;7.70;;
76194;SDS011;64964;48.694;21.206;2023-08-21T07:47:09;8.82;;;7.68;;
76194;SDS011;64964;48.694;21.206;2023-08-21T07:49:35;10.73;;;8.10;;
76194;SDS011;64964;48.694;21.206;2023-08-21T07:52:00;9.47;;;8.43;;
76194;SDS011;64964;48.694;21.206;2023-08-21T07:54:27;10.77;;;8.68;;
76194;SDS011;64964;48.694;21.206;2023-08-21T07:56:53;12.47;;;9.50;;
76194;SDS011;64964;48.694;21.206;2023-08-21T07:59:18;11.37;;;8.87;;
76194;SDS011;64964;48.694;21.206;2023-08-21T08:01:44;10.27;;;8.23;;
76194;SDS011;64964;48.694;21.206;2023-08-21T08:04:10;10.63;;;7.90;;
76194;SDS011;64964;48.694;21.206;2023-08-21T08:06:36;11.27;;;7.53;;
76194;SDS011;64964;48.694;21.206;2023-08-21T08:09:02;8.20;;;7.40;;
76194;SDS011;64964;48.694;21.206;2023-08-21T08:11:28;8.15;;;6.97;;
76194;SDS011;64964;48.694;21.206;2023-08-21T08:13:54;8.20;;;7.10;;
76194;SDS011;64964;48.694;21.206;2023-08-21T08:16:20;7.95;;;7.13;;
76194;SDS011;64964;48.694;21.206;2023-08-21T08:18:45;11.47;;;7.60;;
76194;SDS011;64964;48.694;21.206;2023-08-21T08:21:10;9.20;;;7.50;;
76194;SDS011;64964;48.694;21.206;2023-08-21T08:23:36;7.47;;;6.78;;
76194;SDS011;64964;48.694;21.206;2023-08-21T08:26:01;10.53;;;7.00;;
76194;SDS011;64964;48.694;21.206;2023-08-21T08:28:27;8.55;;;7.07;;
76194;SDS011;64964;48.694;21.206;2023-08-21T08:30:52;7.60;;;6.70;;
76194;SDS011;64964;48.694;21.206;2023-08-21T08:33:18;8.47;;;6.60;;
76194;SDS011;64964;48.694;21.206;2023-08-21T08:35:43;8.13;;;6.70;;
76194;SDS011;64964;48.694;21.206;2023-08-21T08:38:09;7.88;;;7.00;;
76194;SDS011;64964;48.694;21.206;2023-08-21T08:40:35;10.20;;;6.87;;
76194;SDS011;64964;48.694;21.206;2023-08-21T08:43:06;8.10;;;7.30;;
76194;SDS011;64964;48.694;21.206;2023-08-21T08:45:32;9.30;;;7.33;;
76194;SDS011;64964;48.694;21.206;2023-08-21T08:47:59;8.45;;;6.80;;
76194;SDS011;64964;48.694;21.206;2023-08-21T08:50:27;8.80;;;6.50;;
76194;SDS011;64964;48.694;21.206;2023-08-21T08:52:54;9.45;;;6.85;;
76194;SDS011;64964;48.694;21.206;2023-08-21T08:55:21;8.23;;;6.78;;
76194;SDS011;64964;48.694;21.206;2023-08-21T08:57:46;7.57;;;6.70;;
76194;SDS011;64964;48.694;21.206;2023-08-21T09:00:12;9.93;;;6.95;;
76194;SDS011;64964;48.694;21.206;2023-08-21T09:02:37;8.20;;;6.57;;
76194;SDS011;64964;48.694;21.206;2023-08-21T09:05:03;8.00;;;6.53;;
76194;SDS011;64964;48.694;21.206;2023-08-21T09:07:29;7.70;;;6.87;;
76194;SDS011;64964;48.694;21.206;2023-08-21T09:09:55;8.47;;;6.60;;
76194;SDS011;64964;48.694;21.206;2023-08-21T09:12:20;7.77;;;6.13;;
76194;SDS011;64964;48.694;21.206;2023-08-21T09:14:46;10.45;;;6.63;;
76194;SDS011;64964;48.694;21.206;2023-08-21T09:17:12;9.10;;;7.35;;
76194;SDS011;64964;48.694;21.206;2023-08-21T09:19:38;8.07;;;7.28;;
76194;SDS011;64964;48.694;21.206;2023-08-21T09:22:08;7.73;;;6.93;;
76194;SDS011;64964;48.694;21.206;2023-08-21T09:24:38;8.90;;;6.90;;
76194;SDS011;64964;48.694;21.206;2023-08-21T09:27:04;7.88;;;6.85;;
76194;SDS011;64964;48.694;21.206;2023-08-21T09:29:40;7.40;;;6.70;;
76194;SDS011;64964;48.694;21.206;2023-08-21T09:32:06;8.30;;;7.03;;
76194;SDS011;64964;48.694;21.206;2023-08-21T09:34:35;7.47;;;6.67;;
76194;SDS011;64964;48.694;21.206;2023-08-21T09:37:04;7.38;;;6.47;;
76194;SDS011;64964;48.694;21.206;2023-08-21T09:39:34;7.88;;;7.07;;
76194;SDS011;64964;48.694;21.206;2023-08-21T09:42:04;7.70;;;6.40;;
76194;SDS011;64964;48.694;21.206;2023-08-21T09:44:39;10.15;;;6.50;;
76194;SDS011;64964;48.694;21.206;2023-08-21T09:47:11;8.50;;;5.77;;
76194;SDS011;64964;48.694;21.206;2023-08-21T09:49:37;8.93;;;6.57;;
76194;SDS011;64964;48.694;21.206;2023-08-21T09:52:05;9.50;;;6.65;;
76194;SDS011;64964;48.694;21.206;2023-08-21T09:54:32;10.38;;;7.07;;
76194;SDS011;64964;48.694;21.206;2023-08-21T09:57:02;8.82;;;7.13;;
76194;SDS011;64964;48.694;21.206;2023-08-21T09:59:29;7.53;;;6.60;;
76194;SDS011;64964;48.694;21.206;2023-08-21T10:01:56;8.23;;;6.65;;
76194;SDS011;64964;48.694;21.206;2023-08-21T10:04:23;7.72;;;6.68;;
76194;SDS011;64964;48.694;21.206;2023-08-21T10:06:50;7.15;;;6.55;;
76194;SDS011;64964;48.694;21.206;2023-08-21T10:09:19;8.60;;;6.00;;
76194;SDS011;64964;48.694;21.206;2023-08-21T10:11:46;6.97;;;6.27;;
76194;SDS011;64964;48.694;21.206;2023-08-21T10:14:12;8.23;;;6.57;;
76194;SDS011;64964;48.694;21.206;2023-08-21T10:16:38;10.82;;;6.57;;
76194;SDS011;64964;48.694;21.206;2023-08-21T10:19:04;6.83;;;6.17;;
76194;SDS011;64964;48.694;21.206;2023-08-21T10:21:36;7.43;;;6.55;;
76194;SDS011;64964;48.694;21.206;2023-08-21T10:24:04;7.93;;;6.43;;
76194;SDS011;64964;48.694;21.206;2023-08-21T10:26:30;7.07;;;6.37;;
76194;SDS011;64964;48.694;21.206;2023-08-21T10:28:58;9.15;;;6.20;;
76194;SDS011;64964;48.694;21.206;2023-08-21T10:33:53;7.70;;;5.93;;
76194;SDS011;64964;48.694;21.206;2023-08-21T10:39:22;7.07;;;5.90;;
76194;SDS011;64964;48.694;21.206;2023-08-21T10:41:55;7.80;;;5.72;;
76194;SDS011;64964;48.694;21.206;2023-08-21T10:44:35;6.30;;;5.70;;
76194;SDS011;64964;48.694;21.206;2023-08-21T10:49:58;8.48;;;5.50;;
76194;SDS011;64964;48.694;21.206;2023-08-21T10:52:28;6.53;;;5.38;;
76194;SDS011;64964;48.694;21.206;2023-08-21T10:54:55;6.28;;;5.13;;
76194;SDS011;64964;48.694;21.206;2023-08-21T10:57:24;6.13;;;5.53;;
76194;SDS011;64964;48.694;21.206;2023-08-21T10:59:51;5.70;;;4.75;;
76194;SDS011;64964;48.694;21.206;2023-08-21T11:02:17;8.20;;;5.70;;
76194;SDS011;64964;48.694;21.206;2023-08-21T11:04:43;6.28;;;5.63;;
76194;SDS011;64964;48.694;21.206;2023-08-21T11:07:09;9.18;;;5.82;;
76194;SDS011;64964;48.694;21.206;2023-08-21T11:09:36;7.00;;;5.60;;
76194;SDS011;64964;48.694;21.206;2023-08-21T11:12:08;9.00;;;5.60;;
76194;SDS011;64964;48.694;21.206;2023-08-21T11:14:35;6.05;;;5.45;;
76194;SDS011;64964;48.694;21.206;2023-08-21T11:17:01;7.28;;;5.20;;
76194;SDS011;64964;48.694;21.206;2023-08-21T11:19:29;5.90;;;5.20;;
76194;SDS011;64964;48.694;21.206;2023-08-21T11:21:55;5.95;;;5.40;;
76194;SDS011;64964;48.694;21.206;2023-08-21T11:24:21;5.40;;;4.90;;
76194;SDS011;64964;48.694;21.206;2023-08-21T11:26:46;10.83;;;5.63;;
76194;SDS011;64964;48.694;21.206;2023-08-21T11:29:12;6.32;;;5.32;;
76194;SDS011;64964;48.694;21.206;2023-08-21T11:31:38;8.67;;;5.40;;
76194;SDS011;64964;48.694;21.206;2023-08-21T11:34:03;8.52;;;5.60;;
76194;SDS011;64964;48.694;21.206;2023-08-21T11:36:29;8.83;;;5.10;;
76194;SDS011;64964;48.694;21.206;2023-08-21T11:39:01;6.97;;;5.32;;
76194;SDS011;64964;48.694;21.206;2023-08-21T11:41:30;6.20;;;5.60;;
76194;SDS011;64964;48.694;21.206;2023-08-21T11:44:01;10.57;;;5.43;;
76194;SDS011;64964;48.694;21.206;2023-08-21T11:46:28;5.90;;;5.40;;
76194;SDS011;64964;48.694;21.206;2023-08-21T11:48:54;6.10;;;5.30;;
76194;SDS011;64964;48.694;21.206;2023-08-21T11:51:19;6.00;;;5.07;;
76194;SDS011;64964;48.694;21.206;2023-08-21T11:53:45;6.67;;;4.53;;
76194;SDS011;64964;48.694;21.206;2023-08-21T11:56:14;7.43;;;4.50;;
76194;SDS011;64964;48.694;21.206;2023-08-21T11:58:41;6.20;;;4.72;;
76194;SDS011;64964;48.694;21.206;2023-08-21T12:01:07;5.80;;;4.70;;
76194;SDS011;64964;48.694;21.206;2023-08-21T12:03:36;5.88;;;4.70;;
76194;SDS011;64964;48.694;21.206;2023-08-21T12:06:09;5.50;;;4.90;;
76194;SDS011;64964;48.694;21.206;2023-08-21T12:08:35;6.10;;;4.97;;
76194;SDS011;64964;48.694;21.206;2023-08-21T12:11:01;7.20;;;4.80;;
76194;SDS011;64964;48.694;21.206;2023-08-21T12:13:27;7.95;;;4.47;;
76194;SDS011;64964;48.694;21.206;2023-08-21T12:15:52;7.70;;;4.17;;
76194;SDS011;64964;48.694;21.206;2023-08-21T12:18:17;5.17;;;4.67;;
76194;SDS011;64964;48.694;21.206;2023-08-21T12:20:43;8.37;;;5.37;;
76194;SDS011;64964;48.694;21.206;2023-08-21T12:23:08;7.90;;;4.90;;
76194;SDS011;64964;48.694;21.206;2023-08-21T12:25:33;7.97;;;5.37;;
76194;SDS011;64964;48.694;21.206;2023-08-21T12:27:59;6.90;;;4.50;;
76194;SDS011;64964;48.694;21.206;2023-08-21T12:30:24;5.50;;;4.50;;
76194;SDS011;64964;48.694;21.206;2023-08-21T12:32:50;6.13;;;4.50;;
76194;SDS011;64964;48.694;21.206;2023-08-21T12:35:15;4.70;;;3.80;;
76194;SDS011;64964;48.694;21.206;2023-08-21T12:37:41;5.97;;;4.10;;
76194;SDS011;64964;48.694;21.206;2023-08-21T12:40:06;5.53;;;4.15;;
76194;SDS011;64964;48.694;21.206;2023-08-21T12:42:32;5.40;;;4.40;;
76194;SDS011;64964;48.694;21.206;2023-08-21T12:44:57;7.90;;;4.15;;
76194;SDS011;64964;48.694;21.206;2023-08-21T12:47:23;7.47;;;4.90;;
76194;SDS011;64964;48.694;21.206;2023-08-21T12:49:48;7.80;;;4.97;;
76194;SDS011;64964;48.694;21.206;2023-08-21T12:52:14;5.18;;;4.40;;
76194;SDS011;64964;48.694;21.206;2023-08-21T12:54:39;11.43;;;5.50;;
76194;SDS011;64964;48.694;21.206;2023-08-21T12:57:04;11.83;;;5.43;;
76194;SDS011;64964;48.694;21.206;2023-08-21T12:59:30;14.93;;;6.45;;
76194;SDS011;64964;48.694;21.206;2023-08-21T13:01:58;5.37;;;4.50;;
76194;SDS011;64964;48.694;21.206;2023-08-21T13:04:25;11.43;;;6.20;;
76194;SDS011;64964;48.694;21.206;2023-08-21T13:06:50;9.80;;;5.10;;
76194;SDS011;64964;48.694;21.206;2023-08-21T13:09:15;12.80;;;5.80;;
76194;SDS011;64964;48.694;21.206;2023-08-21T13:11:41;5.90;;;5.30;;
76194;SDS011;64964;48.694;21.206;2023-08-21T13:14:06;6.93;;;5.17;;
76194;SDS011;64964;48.694;21.206;2023-08-21T13:16:31;8.00;;;5.50;;
76194;SDS011;64964;48.694;21.206;2023-08-21T13:18:57;8.47;;;5.03;;
76194;SDS011;64964;48.694;21.206;2023-08-21T13:21:22;8.83;;;5.20;;
76194;SDS011;64964;48.694;21.206;2023-08-21T13:23:48;5.63;;;5.13;;
76194;SDS011;64964;48.694;21.206;2023-08-21T13:26:13;7.80;;;4.90;;
76194;SDS011;64964;48.694;21.206;2023-08-21T13:28:38;8.47;;;4.73;;
76194;SDS011;64964;48.694;21.206;2023-08-21T13:31:04;8.07;;;4.70;;
76194;SDS011;64964;48.694;21.206;2023-08-21T13:33:30;5.53;;;4.80;;
76194;SDS011;64964;48.694;21.206;2023-08-21T13:35:56;5.80;;;4.93;;
76194;SDS011;64964;48.694;21.206;2023-08-21T13:38:21;5.20;;;4.70;;
76194;SDS011;64964;48.694;21.206;2023-08-21T13:40:47;5.67;;;5.13;;
76194;SDS011;64964;48.694;21.206;2023-08-21T13:43:12;6.57;;;5.00;;
76194;SDS011;64964;48.694;21.206;2023-08-21T13:45:37;6.50;;;4.87;;
76194;SDS011;64964;48.694;21.206;2023-08-21T13:48:05;5.78;;;5.00;;
76194;SDS011;64964;48.694;21.206;2023-08-21T13:50:30;6.80;;;5.95;;
76194;SDS011;64964;48.694;21.206;2023-08-21T13:52:56;5.97;;;5.37;;
76194;SDS011;64964;48.694;21.206;2023-08-21T13:55:21;5.73;;;5.13;;
76194;SDS011;64964;48.694;21.206;2023-08-21T13:57:48;6.00;;;5.40;;
76194;SDS011;64964;48.694;21.206;2023-08-21T14:00:13;8.37;;;5.53;;
76194;SDS011;64964;48.694;21.206;2023-08-21T14:02:39;6.65;;;5.15;;
76194;SDS011;64964;48.694;21.206;2023-08-21T14:05:06;7.75;;;5.85;;
76194;SDS011;64964;48.694;21.206;2023-08-21T14:07:32;9.70;;;6.28;;
76194;SDS011;64964;48.694;21.206;2023-08-21T14:09:58;9.53;;;5.37;;
76194;SDS011;64964;48.694;21.206;2023-08-21T14:12:24;6.83;;;5.70;;
76194;SDS011;64964;48.694;21.206;2023-08-21T14:14:50;6.68;;;5.28;;
76194;SDS011;64964;48.694;21.206;2023-08-21T14:17:15;6.00;;;5.10;;
76194;SDS011;64964;48.694;21.206;2023-08-21T14:19:44;10.50;;;5.70;;
76194;SDS011;64964;48.694;21.206;2023-08-21T14:22:09;7.95;;;6.25;;
76194;SDS011;64964;48.694;21.206;2023-08-21T14:24:35;6.33;;;5.67;;
76194;SDS011;64964;48.694;21.206;2023-08-21T14:27:00;7.30;;;5.40;;
76194;SDS011;64964;48.694;21.206;2023-08-21T14:29:25;8.30;;;5.30;;